Gentio do Ouro, Brazil
Current Conditions -  °F | °C
As of 3:00 PM on Friday 28 Nov 2014 (Local Time) from SBPL Reporting Station
Few Clouds Few Clouds  
Wind Chill: 97°   Ceiling: Unl
Heat Index: 99°   Visibility: 6mi
Dew Point: 64°   Wind: 9mph
Humidity: 34%   Direction: 200°SSW
Pressure: 29.85"   Gusts: NA
Location:  11.43°S, 42.5°W
Report Text: SBPL 281800Z 20008KT 9999 FEW040 36/18 Q1011
Loading
Personal Weather Stations






























Interactive Weather Map New forecast layout! Learn more

10-Day Weather Forecast

Advertisements
Track Severe Weather on mobile